sensor_id;sensor_type;location;lat;lon;timestamp;pressure;altitude;pressure_sealevel;temperature;humidity
71666;BME280;59503;53.486;10.196;2023-06-10T00:00:47;101916.06;;;13.54;100.00
71666;BME280;59503;53.486;10.196;2023-06-10T00:03:12;101913.25;;;13.51;100.00
71666;BME280;59503;53.486;10.196;2023-06-10T00:05:38;101912.66;;;13.42;100.00
71666;BME280;59503;53.486;10.196;2023-06-10T00:08:06;101912.09;;;13.36;100.00
71666;BME280;59503;53.486;10.196;2023-06-10T00:10:38;101900.66;;;13.31;100.00
71666;BME280;59503;53.486;10.196;2023-06-10T00:13:05;101904.63;;;13.33;100.00
71666;BME280;59503;53.486;10.196;2023-06-10T00:15:33;101905.59;;;13.25;100.00
71666;BME280;59503;53.486;10.196;2023-06-10T00:18:00;101901.63;;;13.23;100.00
71666;BME280;59503;53.486;10.196;2023-06-10T00:20:26;101914.03;;;13.20;100.00
71666;BME280;59503;53.486;10.196;2023-06-10T00:22:51;101911.72;;;13.22;100.00
71666;BME280;59503;53.486;10.196;2023-06-10T00:25:18;101914.31;;;13.15;100.00
71666;BME280;59503;53.486;10.196;2023-06-10T00:27:43;101913.50;;;13.15;100.00
71666;BME280;59503;53.486;10.196;2023-06-10T00:30:09;101908.56;;;13.05;100.00
71666;BME280;59503;53.486;10.196;2023-06-10T00:32:35;101909.84;;;12.95;100.00
71666;BME280;59503;53.486;10.196;2023-06-10T00:35:01;101913.69;;;12.94;100.00
71666;BME280;59503;53.486;10.196;2023-06-10T00:37:27;101916.13;;;12.84;100.00
71666;BME280;59503;53.486;10.196;2023-06-10T00:39:54;101917.88;;;12.76;100.00
71666;BME280;59503;53.486;10.196;2023-06-10T00:42:19;101920.50;;;12.73;100.00
71666;BME280;59503;53.486;10.196;2023-06-10T00:44:45;101919.16;;;12.67;100.00
71666;BME280;59503;53.486;10.196;2023-06-10T00:47:10;101917.91;;;12.64;100.00
71666;BME280;59503;53.486;10.196;2023-06-10T00:49:36;101920.16;;;12.74;100.00
71666;BME280;59503;53.486;10.196;2023-06-10T00:52:03;101918.72;;;12.65;100.00
71666;BME280;59503;53.486;10.196;2023-06-10T00:54:30;101917.00;;;12.60;100.00
71666;BME280;59503;53.486;10.196;2023-06-10T00:56:56;101920.28;;;12.66;100.00
71666;BME280;59503;53.486;10.196;2023-06-10T00:59:21;101921.72;;;12.75;100.00
71666;BME280;59503;53.486;10.196;2023-06-10T01:01:47;101926.09;;;12.64;100.00
71666;BME280;59503;53.486;10.196;2023-06-10T01:04:13;101919.75;;;12.60;100.00
71666;BME280;59503;53.486;10.196;2023-06-10T01:06:52;101917.59;;;12.53;100.00
71666;BME280;59503;53.486;10.196;2023-06-10T01:10:01;101921.38;;;12.49;100.00
71666;BME280;59503;53.486;10.196;2023-06-10T01:12:34;101924.69;;;12.42;100.00
71666;BME280;59503;53.486;10.196;2023-06-10T01:15:04;101930.03;;;12.39;100.00
71666;BME280;59503;53.486;10.196;2023-06-10T01:17:29;101925.97;;;12.33;100.00
71666;BME280;59503;53.486;10.196;2023-06-10T01:19:58;101924.63;;;12.27;100.00
71666;BME280;59503;53.486;10.196;2023-06-10T01:22:25;101928.03;;;12.24;100.00
71666;BME280;59503;53.486;10.196;2023-06-10T01:24:54;101931.34;;;12.17;100.00
71666;BME280;59503;53.486;10.196;2023-06-10T01:27:26;101929.41;;;12.18;100.00
71666;BME280;59503;53.486;10.196;2023-06-10T01:30:09;101930.78;;;12.12;100.00
71666;BME280;59503;53.486;10.196;2023-06-10T01:32:51;101935.53;;;12.15;100.00
71666;BME280;59503;53.486;10.196;2023-06-10T01:35:17;101933.28;;;12.05;100.00
71666;BME280;59503;53.486;10.196;2023-06-10T01:37:46;101929.19;;;11.99;100.00
71666;BME280;59503;53.486;10.196;2023-06-10T01:40:13;101926.59;;;12.02;100.00
71666;BME280;59503;53.486;10.196;2023-06-10T01:42:39;101926.47;;;11.99;100.00
71666;BME280;59503;53.486;10.196;2023-06-10T01:45:05;101929.66;;;12.01;100.00
71666;BME280;59503;53.486;10.196;2023-06-10T01:47:31;101931.69;;;11.92;100.00
71666;BME280;59503;53.486;10.196;2023-06-10T01:49:56;101922.59;;;11.88;100.00
71666;BME280;59503;53.486;10.196;2023-06-10T01:52:22;101926.03;;;11.85;100.00
71666;BME280;59503;53.486;10.196;2023-06-10T01:54:48;101923.75;;;11.87;100.00
71666;BME280;59503;53.486;10.196;2023-06-10T01:57:13;101919.69;;;11.81;100.00
71666;BME280;59503;53.486;10.196;2023-06-10T01:59:39;101920.13;;;11.71;100.00
71666;BME280;59503;53.486;10.196;2023-06-10T02:02:05;101919.69;;;11.69;100.00
71666;BME280;59503;53.486;10.196;2023-06-10T02:04:31;101924.19;;;11.65;100.00
71666;BME280;59503;53.486;10.196;2023-06-10T02:06:56;101925.34;;;11.64;100.00
71666;BME280;59503;53.486;10.196;2023-06-10T02:09:22;101924.78;;;11.70;100.00
71666;BME280;59503;53.486;10.196;2023-06-10T02:11:48;101919.06;;;11.63;100.00
71666;BME280;59503;53.486;10.196;2023-06-10T02:14:14;101919.91;;;11.64;100.00
71666;BME280;59503;53.486;10.196;2023-06-10T02:16:40;101928.28;;;11.59;100.00
71666;BME280;59503;53.486;10.196;2023-06-10T02:19:05;101933.03;;;11.62;100.00
71666;BME280;59503;53.486;10.196;2023-06-10T02:21:31;101914.19;;;11.57;100.00
71666;BME280;59503;53.486;10.196;2023-06-10T02:23:57;101918.72;;;11.53;100.00
71666;BME280;59503;53.486;10.196;2023-06-10T02:26:22;101916.44;;;11.55;100.00
71666;BME280;59503;53.486;10.196;2023-06-10T02:28:48;101914.88;;;11.54;100.00
71666;BME280;59503;53.486;10.196;2023-06-10T02:31:13;101922.81;;;11.59;100.00
71666;BME280;59503;53.486;10.196;2023-06-10T02:33:39;101926.25;;;11.68;100.00
71666;BME280;59503;53.486;10.196;2023-06-10T02:36:05;101923.09;;;11.66;100.00
71666;BME280;59503;53.486;10.196;2023-06-10T02:38:31;101923.63;;;11.59;100.00
71666;BME280;59503;53.486;10.196;2023-06-10T02:40:56;101923.03;;;11.54;100.00
71666;BME280;59503;53.486;10.196;2023-06-10T02:43:22;101928.84;;;11.52;100.00
71666;BME280;59503;53.486;10.196;2023-06-10T02:45:47;101933.94;;;11.54;100.00
71666;BME280;59503;53.486;10.196;2023-06-10T02:48:12;101937.81;;;11.65;100.00
71666;BME280;59503;53.486;10.196;2023-06-10T02:50:38;101928.94;;;11.56;100.00
71666;BME280;59503;53.486;10.196;2023-06-10T02:53:05;101929.81;;;11.48;100.00
71666;BME280;59503;53.486;10.196;2023-06-10T02:55:30;101934.84;;;11.46;100.00
71666;BME280;59503;53.486;10.196;2023-06-10T02:57:57;101928.72;;;11.49;100.00
71666;BME280;59503;53.486;10.196;2023-06-10T03:00:23;101936.19;;;11.40;100.00
71666;BME280;59503;53.486;10.196;2023-06-10T03:02:48;101941.28;;;11.41;100.00
71666;BME280;59503;53.486;10.196;2023-06-10T03:05:14;101944.56;;;11.35;100.00
71666;BME280;59503;53.486;10.196;2023-06-10T03:07:40;101947.03;;;11.27;100.00
71666;BME280;59503;53.486;10.196;2023-06-10T03:10:06;101937.63;;;11.25;100.00
71666;BME280;59503;53.486;10.196;2023-06-10T03:12:32;101939.34;;;11.29;100.00
71666;BME280;59503;53.486;10.196;2023-06-10T03:14:57;101937.53;;;11.34;100.00
71666;BME280;59503;53.486;10.196;2023-06-10T03:17:23;101946.16;;;11.36;100.00
71666;BME280;59503;53.486;10.196;2023-06-10T03:19:48;101942.41;;;11.40;100.00
71666;BME280;59503;53.486;10.196;2023-06-10T03:22:15;101942.19;;;11.33;100.00
71666;BME280;59503;53.486;10.196;2023-06-10T03:24:41;101934.81;;;11.34;100.00
71666;BME280;59503;53.486;10.196;2023-06-10T03:27:07;101946.47;;;11.34;100.00
71666;BME280;59503;53.486;10.196;2023-06-10T03:29:33;101941.28;;;11.41;100.00
71666;BME280;59503;53.486;10.196;2023-06-10T03:31:58;101932.56;;;11.48;100.00
71666;BME280;59503;53.486;10.196;2023-06-10T03:34:24;101945.28;;;11.44;100.00
71666;BME280;59503;53.486;10.196;2023-06-10T03:36:49;101931.44;;;11.49;100.00
71666;BME280;59503;53.486;10.196;2023-06-10T03:39:15;101932.00;;;11.42;100.00
71666;BME280;59503;53.486;10.196;2023-06-10T03:41:41;101928.84;;;11.52;100.00
71666;BME280;59503;53.486;10.196;2023-06-10T03:44:06;101938.91;;;11.52;100.00
71666;BME280;59503;53.486;10.196;2023-06-10T03:46:32;101927.00;;;11.56;100.00
71666;BME280;59503;53.486;10.196;2023-06-10T03:48:57;101932.31;;;11.53;100.00
71666;BME280;59503;53.486;10.196;2023-06-10T03:51:26;101936.19;;;11.52;100.00
71666;BME280;59503;53.486;10.196;2023-06-10T03:53:51;101942.09;;;11.54;100.00
71666;BME280;59503;53.486;10.196;2023-06-10T03:56:17;101937.56;;;11.58;100.00
71666;BME280;59503;53.486;10.196;2023-06-10T03:58:42;101943.38;;;11.68;100.00
71666;BME280;59503;53.486;10.196;2023-06-10T04:01:07;101945.88;;;11.73;100.00
71666;BME280;59503;53.486;10.196;2023-06-10T04:03:33;101945.66;;;11.78;100.00
71666;BME280;59503;53.486;10.196;2023-06-10T04:05:58;101941.25;;;11.74;100.00
71666;BME280;59503;53.486;10.196;2023-06-10T04:08:23;101938.75;;;11.81;100.00
71666;BME280;59503;53.486;10.196;2023-06-10T04:10:49;101948.03;;;11.80;100.00
71666;BME280;59503;53.486;10.196;2023-06-10T04:13:14;101945.44;;;11.83;100.00
71666;BME280;59503;53.486;10.196;2023-06-10T04:15:40;101941.38;;;11.89;100.00
71666;BME280;59503;53.486;10.196;2023-06-10T04:18:06;101933.63;;;11.91;100.00
71666;BME280;59503;53.486;10.196;2023-06-10T04:20:31;101932.38;;;12.01;100.00
71666;BME280;59503;53.486;10.196;2023-06-10T04:22:57;101934.19;;;12.09;100.00
71666;BME280;59503;53.486;10.196;2023-06-10T04:25:22;101938.06;;;12.08;100.00
71666;BME280;59503;53.486;10.196;2023-06-10T04:27:49;101939.28;;;12.10;100.00
71666;BME280;59503;53.486;10.196;2023-06-10T04:30:15;101939.63;;;12.33;100.00
71666;BME280;59503;53.486;10.196;2023-06-10T04:32:41;101936.88;;;12.33;100.00
71666;BME280;59503;53.486;10.196;2023-06-10T04:35:07;101941.41;;;12.41;100.00
71666;BME280;59503;53.486;10.196;2023-06-10T04:37:33;101940.22;;;12.54;100.00
71666;BME280;59503;53.486;10.196;2023-06-10T04:39:58;101936.91;;;12.61;100.00
71666;BME280;59503;53.486;10.196;2023-06-10T04:42:24;101941.03;;;12.55;100.00
71666;BME280;59503;53.486;10.196;2023-06-10T04:44:50;101946.53;;;12.70;100.00
71666;BME280;59503;53.486;10.196;2023-06-10T04:47:15;101948.38;;;12.66;100.00
71666;BME280;59503;53.486;10.196;2023-06-10T04:49:42;101939.38;;;12.66;100.00
71666;BME280;59503;53.486;10.196;2023-06-10T04:52:07;101941.88;;;12.71;100.00
71666;BME280;59503;53.486;10.196;2023-06-10T04:54:33;101946.03;;;12.80;100.00
71666;BME280;59503;53.486;10.196;2023-06-10T04:56:58;101939.91;;;12.83;100.00
71666;BME280;59503;53.486;10.196;2023-06-10T04:59:25;101942.50;;;12.92;100.00
71666;BME280;59503;53.486;10.196;2023-06-10T05:01:51;101940.16;;;13.06;100.00
71666;BME280;59503;53.486;10.196;2023-06-10T05:04:16;101941.50;;;13.12;100.00
71666;BME280;59503;53.486;10.196;2023-06-10T05:06:41;101937.81;;;13.20;100.00
71666;BME280;59503;53.486;10.196;2023-06-10T05:09:07;101944.25;;;13.27;100.00
71666;BME280;59503;53.486;10.196;2023-06-10T05:11:32;101948.84;;;13.54;100.00
71666;BME280;59503;53.486;10.196;2023-06-10T05:13:58;101954.59;;;13.65;100.00
71666;BME280;59503;53.486;10.196;2023-06-10T05:16:23;101949.41;;;13.76;100.00
71666;BME280;59503;53.486;10.196;2023-06-10T05:18:49;101957.25;;;13.77;100.00
71666;BME280;59503;53.486;10.196;2023-06-10T05:21:16;101951.31;;;13.91;100.00
71666;BME280;59503;53.486;10.196;2023-06-10T05:23:41;101966.47;;;14.04;100.00
71666;BME280;59503;53.486;10.196;2023-06-10T05:26:06;101960.97;;;14.19;100.00
71666;BME280;59503;53.486;10.196;2023-06-10T05:28:32;101958.81;;;14.44;100.00
71666;BME280;59503;53.486;10.196;2023-06-10T05:30:57;101960.72;;;14.59;100.00
71666;BME280;59503;53.486;10.196;2023-06-10T05:33:22;101961.88;;;14.96;100.00
71666;BME280;59503;53.486;10.196;2023-06-10T05:35:48;101960.69;;;15.16;100.00
71666;BME280;59503;53.486;10.196;2023-06-10T05:38:13;101959.22;;;15.22;100.00
71666;BME280;59503;53.486;10.196;2023-06-10T05:40:39;101955.88;;;15.32;100.00
71666;BME280;59503;53.486;10.196;2023-06-10T05:43:05;101949.19;;;15.49;100.00
71666;BME280;59503;53.486;10.196;2023-06-10T05:45:30;101958.44;;;15.63;100.00
71666;BME280;59503;53.486;10.196;2023-06-10T05:47:55;101950.78;;;15.72;100.00
71666;BME280;59503;53.486;10.196;2023-06-10T05:50:21;101956.16;;;15.91;99.89
71666;BME280;59503;53.486;10.196;2023-06-10T05:52:47;101954.44;;;16.06;98.74
71666;BME280;59503;53.486;10.196;2023-06-10T05:55:12;101945.03;;;16.07;98.83
71666;BME280;59503;53.486;10.196;2023-06-10T05:57:37;101948.81;;;16.25;97.28
71666;BME280;59503;53.486;10.196;2023-06-10T06:00:03;101943.78;;;16.57;94.31
71666;BME280;59503;53.486;10.196;2023-06-10T06:02:29;101946.63;;;16.64;94.29
71666;BME280;59503;53.486;10.196;2023-06-10T06:04:55;101940.41;;;17.00;91.47
71666;BME280;59503;53.486;10.196;2023-06-10T06:07:20;101937.38;;;17.12;89.46
71666;BME280;59503;53.486;10.196;2023-06-10T06:09:46;101946.53;;;17.23;88.25
71666;BME280;59503;53.486;10.196;2023-06-10T06:12:12;101931.22;;;17.25;87.96
71666;BME280;59503;53.486;10.196;2023-06-10T06:14:38;101942.38;;;17.39;87.62
71666;BME280;59503;53.486;10.196;2023-06-10T06:17:07;101942.72;;;17.78;86.19
71666;BME280;59503;53.486;10.196;2023-06-10T06:19:34;101942.91;;;17.99;84.28
71666;BME280;59503;53.486;10.196;2023-06-10T06:21:59;101939.09;;;18.25;82.40
71666;BME280;59503;53.486;10.196;2023-06-10T06:24:25;101949.50;;;18.49;80.79
71666;BME280;59503;53.486;10.196;2023-06-10T06:26:50;101944.06;;;18.70;78.87
71666;BME280;59503;53.486;10.196;2023-06-10T06:29:16;101948.09;;;18.87;77.04
71666;BME280;59503;53.486;10.196;2023-06-10T06:31:41;101955.16;;;18.81;77.28
71666;BME280;59503;53.486;10.196;2023-06-10T06:34:06;101944.59;;;19.07;75.41
71666;BME280;59503;53.486;10.196;2023-06-10T06:36:32;101942.59;;;18.94;77.27
71666;BME280;59503;53.486;10.196;2023-06-10T06:38:57;101943.44;;;19.08;75.66
71666;BME280;59503;53.486;10.196;2023-06-10T06:41:26;101949.44;;;19.56;75.29
71666;BME280;59503;53.486;10.196;2023-06-10T06:43:51;101945.88;;;19.94;71.22
71666;BME280;59503;53.486;10.196;2023-06-10T06:46:16;101948.63;;;20.05;69.92
71666;BME280;59503;53.486;10.196;2023-06-10T06:48:42;101947.72;;;20.53;67.51
71666;BME280;59503;53.486;10.196;2023-06-10T06:51:07;101946.16;;;20.59;66.27
71666;BME280;59503;53.486;10.196;2023-06-10T06:53:36;101949.66;;;20.70;65.80
71666;BME280;59503;53.486;10.196;2023-06-10T06:56:01;101938.84;;;21.01;65.85
71666;BME280;59503;53.486;10.196;2023-06-10T06:58:28;101941.44;;;21.29;63.58
71666;BME280;59503;53.486;10.196;2023-06-10T07:00:53;101945.91;;;21.12;63.62
71666;BME280;59503;53.486;10.196;2023-06-10T07:03:19;101943.72;;;21.41;62.86
71666;BME280;59503;53.486;10.196;2023-06-10T07:05:44;101943.19;;;21.63;62.08
71666;BME280;59503;53.486;10.196;2023-06-10T07:08:10;101940.63;;;21.86;61.38
71666;BME280;59503;53.486;10.196;2023-06-10T07:10:37;101947.72;;;22.28;58.48
71666;BME280;59503;53.486;10.196;2023-06-10T07:13:02;101959.56;;;22.69;56.31
71666;BME280;59503;53.486;10.196;2023-06-10T07:15:28;101953.50;;;22.78;56.57
71666;BME280;59503;53.486;10.196;2023-06-10T07:17:53;101952.19;;;22.86;55.19
71666;BME280;59503;53.486;10.196;2023-06-10T07:20:18;101951.56;;;22.75;55.92
71666;BME280;59503;53.486;10.196;2023-06-10T07:22:44;101965.97;;;22.93;55.45
71666;BME280;59503;53.486;10.196;2023-06-10T07:25:09;101961.91;;;23.01;54.66
71666;BME280;59503;53.486;10.196;2023-06-10T07:27:35;101965.50;;;22.98;54.84
71666;BME280;59503;53.486;10.196;2023-06-10T07:30:03;101959.91;;;23.01;55.29
71666;BME280;59503;53.486;10.196;2023-06-10T07:32:29;101963.88;;;22.70;54.75
71666;BME280;59503;53.486;10.196;2023-06-10T07:34:55;101970.69;;;22.96;55.03
71666;BME280;59503;53.486;10.196;2023-06-10T07:37:20;101966.66;;;23.00;54.97
71666;BME280;59503;53.486;10.196;2023-06-10T07:39:46;101959.88;;;23.05;55.06
71666;BME280;59503;53.486;10.196;2023-06-10T07:42:11;101966.34;;;22.95;55.31
71666;BME280;59503;53.486;10.196;2023-06-10T07:44:37;101958.22;;;23.38;53.81
71666;BME280;59503;53.486;10.196;2023-06-10T07:47:02;101953.41;;;23.42;53.00
71666;BME280;59503;53.486;10.196;2023-06-10T07:49:27;101961.38;;;23.40;53.65
71666;BME280;59503;53.486;10.196;2023-06-10T07:51:56;101954.91;;;23.46;53.48
71666;BME280;59503;53.486;10.196;2023-06-10T07:54:22;101955.31;;;23.18;54.60
71666;BME280;59503;53.486;10.196;2023-06-10T07:56:47;101954.88;;;23.50;54.33
71666;BME280;59503;53.486;10.196;2023-06-10T07:59:13;101962.81;;;23.48;52.38
71666;BME280;59503;53.486;10.196;2023-06-10T08:01:39;101953.56;;;23.31;52.92
71666;BME280;59503;53.486;10.196;2023-06-10T08:04:05;101956.31;;;23.04;53.80
71666;BME280;59503;53.486;10.196;2023-06-10T08:06:30;101958.50;;;23.47;52.91
71666;BME280;59503;53.486;10.196;2023-06-10T08:08:56;101955.78;;;23.66;52.48
71666;BME280;59503;53.486;10.196;2023-06-10T08:11:21;101947.22;;;23.80;51.56
71666;BME280;59503;53.486;10.196;2023-06-10T08:13:47;101956.56;;;23.44;52.81
71666;BME280;59503;53.486;10.196;2023-06-10T08:16:12;101961.66;;;23.18;53.14
71666;BME280;59503;53.486;10.196;2023-06-10T08:18:37;101953.81;;;23.67;53.73
71666;BME280;59503;53.486;10.196;2023-06-10T08:21:03;101949.16;;;24.06;51.65
71666;BME280;59503;53.486;10.196;2023-06-10T08:23:28;101965.88;;;24.03;50.72
71666;BME280;59503;53.486;10.196;2023-06-10T08:25:54;101956.09;;;24.18;51.01
71666;BME280;59503;53.486;10.196;2023-06-10T08:28:19;101947.66;;;24.44;50.88
71666;BME280;59503;53.486;10.196;2023-06-10T08:30:45;101952.16;;;24.78;49.60
71666;BME280;59503;53.486;10.196;2023-06-10T08:33:11;101949.09;;;25.24;48.70
71666;BME280;59503;53.486;10.196;2023-06-10T08:35:36;101949.09;;;25.24;47.77
71666;BME280;59503;53.486;10.196;2023-06-10T08:38:02;101943.69;;;25.17;48.28
71666;BME280;59503;53.486;10.196;2023-06-10T08:40:27;101946.81;;;25.38;47.31
71666;BME280;59503;53.486;10.196;2023-06-10T08:43:00;101945.63;;;25.20;48.40
71666;BME280;59503;53.486;10.196;2023-06-10T08:45:29;101945.44;;;25.46;48.08
71666;BME280;59503;53.486;10.196;2023-06-10T08:47:57;101945.34;;;25.50;47.87
71666;BME280;59503;53.486;10.196;2023-06-10T08:50:22;101953.25;;;25.51;47.96
71666;BME280;59503;53.486;10.196;2023-06-10T08:52:50;101949.03;;;26.08;45.57
71666;BME280;59503;53.486;10.196;2023-06-10T08:55:24;101945.31;;;26.14;45.34
71666;BME280;59503;53.486;10.196;2023-06-10T08:57:53;101945.56;;;25.88;46.24
71666;BME280;59503;53.486;10.196;2023-06-10T09:00:19;101936.16;;;26.14;45.75
71666;BME280;59503;53.486;10.196;2023-06-10T09:02:45;101938.50;;;26.15;45.99
71666;BME280;59503;53.486;10.196;2023-06-10T09:05:10;101947.53;;;26.48;45.35
71666;BME280;59503;53.486;10.196;2023-06-10T09:07:36;101936.28;;;26.23;45.11
71666;BME280;59503;53.486;10.196;2023-06-10T09:10:03;101933.56;;;26.07;45.67
71666;BME280;59503;53.486;10.196;2023-06-10T09:12:30;101931.56;;;26.48;45.37
71666;BME280;59503;53.486;10.196;2023-06-10T09:14:55;101938.50;;;26.98;44.13
71666;BME280;59503;53.486;10.196;2023-06-10T09:17:21;101928.09;;;26.85;43.95
71666;BME280;59503;53.486;10.196;2023-06-10T09:19:47;101935.13;;;26.90;44.54
71666;BME280;59503;53.486;10.196;2023-06-10T09:22:13;101930.44;;;27.62;42.22
71666;BME280;59503;53.486;10.196;2023-06-10T09:24:38;101926.66;;;27.19;43.24
71666;BME280;59503;53.486;10.196;2023-06-10T09:27:06;101927.78;;;27.46;42.31
71666;BME280;59503;53.486;10.196;2023-06-10T09:29:53;101934.50;;;27.36;42.47
71666;BME280;59503;53.486;10.196;2023-06-10T09:32:19;101927.00;;;27.46;42.96
71666;BME280;59503;53.486;10.196;2023-06-10T09:34:45;101925.69;;;27.38;43.32
71666;BME280;59503;53.486;10.196;2023-06-10T09:37:11;101927.22;;;27.39;43.48
71666;BME280;59503;53.486;10.196;2023-06-10T09:39:39;101920.41;;;27.52;42.41
71666;BME280;59503;53.486;10.196;2023-06-10T09:42:18;101933.94;;;27.16;43.24
71666;BME280;59503;53.486;10.196;2023-06-10T09:44:51;101925.53;;;27.54;42.76
71666;BME280;59503;53.486;10.196;2023-06-10T09:47:20;101930.13;;;28.07;41.13
71666;BME280;59503;53.486;10.196;2023-06-10T09:49:46;101920.19;;;28.28;41.66
71666;BME280;59503;53.486;10.196;2023-06-10T09:52:12;101927.28;;;27.85;42.08
71666;BME280;59503;53.486;10.196;2023-06-10T09:54:37;101920.69;;;28.35;41.72
71666;BME280;59503;53.486;10.196;2023-06-10T09:57:07;101905.72;;;28.72;40.54
71666;BME280;59503;53.486;10.196;2023-06-10T09:59:33;101919.47;;;29.19;39.31
71666;BME280;59503;53.486;10.196;2023-06-10T10:02:00;101924.16;;;29.22;38.83
71666;BME280;59503;53.486;10.196;2023-06-10T10:04:26;101917.28;;;28.53;40.74
71666;BME280;59503;53.486;10.196;2023-06-10T10:06:52;101908.72;;;28.78;40.04
71666;BME280;59503;53.486;10.196;2023-06-10T10:09:18;101915.63;;;29.25;39.58
71666;BME280;59503;53.486;10.196;2023-06-10T10:11:44;101919.72;;;29.03;39.48
71666;BME280;59503;53.486;10.196;2023-06-10T10:14:09;101918.25;;;28.89;39.59
71666;BME280;59503;53.486;10.196;2023-06-10T10:16:37;101915.25;;;28.53;40.67
71666;BME280;59503;53.486;10.196;2023-06-10T10:19:18;101912.19;;;28.91;40.59
71666;BME280;59503;53.486;10.196;2023-06-10T10:21:53;101923.38;;;29.70;38.79
71666;BME280;59503;53.486;10.196;2023-06-10T10:24:21;101911.25;;;29.73;38.23
71666;BME280;59503;53.486;10.196;2023-06-10T10:26:50;101919.97;;;29.75;38.58
71666;BME280;59503;53.486;10.196;2023-06-10T10:29:35;101904.53;;;29.80;38.43
71666;BME280;59503;53.486;10.196;2023-06-10T10:32:03;101915.47;;;29.20;39.64
71666;BME280;59503;53.486;10.196;2023-06-10T10:37:06;101912.06;;;28.94;40.82
71666;BME280;59503;53.486;10.196;2023-06-10T10:39:34;101924.53;;;29.02;40.08
71666;BME280;59503;53.486;10.196;2023-06-10T10:42:01;101912.84;;;29.35;39.85
71666;BME280;59503;53.486;10.196;2023-06-10T10:44:29;101920.00;;;29.36;39.79
71666;BME280;59503;53.486;10.196;2023-06-10T10:46:56;101905.56;;;29.46;39.38
71666;BME280;59503;53.486;10.196;2023-06-10T10:49:24;101903.41;;;29.50;39.89
71666;BME280;59503;53.486;10.196;2023-06-10T10:52:01;101902.13;;;29.42;39.61
71666;BME280;59503;53.486;10.196;2023-06-10T10:54:32;101908.50;;;29.43;39.89
71666;BME280;59503;53.486;10.196;2023-06-10T11:02:18;101901.19;;;28.66;42.07
71666;BME280;59503;53.486;10.196;2023-06-10T11:04:48;101894.81;;;28.44;42.33
71666;BME280;59503;53.486;10.196;2023-06-10T11:07:13;101903.78;;;28.39;42.59
71666;BME280;59503;53.486;10.196;2023-06-10T11:10:08;101901.72;;;28.82;41.37
71666;BME280;59503;53.486;10.196;2023-06-10T11:12:54;101896.84;;;29.04;42.11
71666;BME280;59503;53.486;10.196;2023-06-10T11:15:25;101896.75;;;29.75;40.02
71666;BME280;59503;53.486;10.196;2023-06-10T11:25:50;101903.75;;;30.33;38.36
71666;BME280;59503;53.486;10.196;2023-06-10T11:28:18;101897.94;;;30.55;38.10
71666;BME280;59503;53.486;10.196;2023-06-10T11:30:45;101888.19;;;30.23;38.77
71666;BME280;59503;53.486;10.196;2023-06-10T11:33:16;101883.56;;;30.71;38.30
71666;BME280;59503;53.486;10.196;2023-06-10T11:35:42;101891.19;;;30.80;37.60
71666;BME280;59503;53.486;10.196;2023-06-10T11:38:09;101883.09;;;30.64;38.28
71666;BME280;59503;53.486;10.196;2023-06-10T11:40:34;101880.84;;;30.17;39.11
71666;BME280;59503;53.486;10.196;2023-06-10T11:43:00;101890.94;;;30.51;38.06
71666;BME280;59503;53.486;10.196;2023-06-10T11:45:26;101890.31;;;30.56;38.29
71666;BME280;59503;53.486;10.196;2023-06-10T11:47:56;101882.13;;;30.76;38.48
71666;BME280;59503;53.486;10.196;2023-06-10T11:50:32;101883.28;;;31.02;38.06
71666;BME280;59503;53.486;10.196;2023-06-10T11:52:58;101885.88;;;30.82;37.91
71666;BME280;59503;53.486;10.196;2023-06-10T11:55:45;101877.69;;;31.25;36.97
71666;BME280;59503;53.486;10.196;2023-06-10T11:58:19;101878.38;;;31.44;36.97
71666;BME280;59503;53.486;10.196;2023-06-10T12:00:52;101882.25;;;31.23;36.60
71666;BME280;59503;53.486;10.196;2023-06-10T12:03:23;101870.47;;;31.10;36.71
71666;BME280;59503;53.486;10.196;2023-06-10T12:05:58;101872.00;;;31.11;37.14
71666;BME280;59503;53.486;10.196;2023-06-10T12:08:25;101872.38;;;31.36;36.51
71666;BME280;59503;53.486;10.196;2023-06-10T12:10:51;101874.94;;;31.16;36.92
71666;BME280;59503;53.486;10.196;2023-06-10T12:13:16;101872.31;;;31.13;36.53
71666;BME280;59503;53.486;10.196;2023-06-10T12:15:45;101872.53;;;31.33;36.33
71666;BME280;59503;53.486;10.196;2023-06-10T12:18:20;101868.41;;;31.81;35.66
71666;BME280;59503;53.486;10.196;2023-06-10T12:20:46;101870.63;;;31.39;35.66
71666;BME280;59503;53.486;10.196;2023-06-10T12:23:12;101869.94;;;31.44;35.15
71666;BME280;59503;53.486;10.196;2023-06-10T12:25:38;101870.25;;;31.46;35.06
71666;BME280;59503;53.486;10.196;2023-06-10T12:28:04;101861.59;;;31.58;34.72
71666;BME280;59503;53.486;10.196;2023-06-10T12:30:31;101863.28;;;31.41;34.43
71666;BME280;59503;53.486;10.196;2023-06-10T12:32:56;101857.69;;;31.56;34.26
71666;BME280;59503;53.486;10.196;2023-06-10T12:35:26;101851.16;;;31.26;34.73
71666;BME280;59503;53.486;10.196;2023-06-10T12:40:29;101844.91;;;31.55;34.53
71666;BME280;59503;53.486;10.196;2023-06-10T12:42:57;101842.69;;;31.35;34.09
71666;BME280;59503;53.486;10.196;2023-06-10T12:45:32;101834.41;;;30.76;35.61
71666;BME280;59503;53.486;10.196;2023-06-10T12:48:08;101845.47;;;31.12;34.60
71666;BME280;59503;53.486;10.196;2023-06-10T12:50:41;101838.13;;;30.82;35.66
71666;BME280;59503;53.486;10.196;2023-06-10T12:53:08;101824.56;;;31.13;35.04